createdAt,value
2018-05-06T00:00:00.646Z,16.85
2018-05-06T00:00:41.168Z,16.81
2018-05-06T00:01:21.693Z,16.86
2018-05-06T00:02:02.222Z,16.78
2018-05-06T00:02:42.753Z,16.83
2018-05-06T00:03:23.274Z,16.79
2018-05-06T00:04:03.802Z,16.81
2018-05-06T00:04:44.325Z,16.81
2018-05-06T00:05:24.856Z,16.76
2018-05-06T00:06:05.382Z,16.81
2018-05-06T00:06:45.905Z,16.71
2018-05-06T00:07:26.429Z,16.76
2018-05-06T00:08:06.958Z,16.71
2018-05-06T00:08:47.489Z,16.75
2018-05-06T00:09:28.029Z,16.68
2018-05-06T00:10:08.535Z,16.71
2018-05-06T00:10:49.077Z,16.75
2018-05-06T00:11:29.604Z,16.71
2018-05-06T00:12:10.123Z,16.67
2018-05-06T00:12:50.647Z,16.61
2018-05-06T00:13:31.167Z,16.7
2018-05-06T00:14:11.700Z,16.66
2018-05-06T00:14:52.224Z,16.56
2018-05-06T00:15:32.747Z,16.64
2018-05-06T00:16:13.277Z,16.61
2018-05-06T00:16:53.806Z,16.56
2018-05-06T00:17:34.337Z,16.6
2018-05-06T00:18:14.859Z,16.63
2018-05-06T00:18:55.391Z,16.61
2018-05-06T00:19:35.930Z,16.49
2018-05-06T00:20:16.488Z,16.57
2018-05-06T00:20:56.959Z,16.57
2018-05-06T00:21:37.480Z,16.6
2018-05-06T00:22:18.007Z,16.66
2018-05-06T00:22:58.531Z,16.58
2018-05-06T00:23:39.059Z,16.63
2018-05-06T00:24:19.588Z,16.63
2018-05-06T00:25:00.117Z,16.56
2018-05-06T00:25:40.637Z,16.6
2018-05-06T00:26:21.156Z,16.57
2018-05-06T00:27:01.681Z,16.63
2018-05-06T00:27:42.218Z,16.56
2018-05-06T00:28:22.738Z,16.6
2018-05-06T00:29:03.271Z,16.61
2018-05-06T00:29:43.791Z,16.56
2018-05-06T00:30:24.293Z,16.5
2018-05-06T00:31:04.812Z,16.53
2018-05-06T00:31:45.321Z,16.48
2018-05-06T00:32:25.833Z,16.52
2018-05-06T00:33:06.350Z,16.56
2018-05-06T00:33:46.877Z,16.53
2018-05-06T00:34:27.428Z,16.52
2018-05-06T00:35:07.878Z,16.49
2018-05-06T00:35:48.402Z,16.5
2018-05-06T00:36:28.920Z,16.48
2018-05-06T00:37:09.451Z,16.43
2018-05-06T00:37:49.973Z,16.48
2018-05-06T00:38:30.500Z,16.5
2018-05-06T00:39:11.026Z,16.43
2018-05-06T00:39:51.541Z,16.48
2018-05-06T00:40:32.054Z,16.46
2018-05-06T00:41:12.573Z,16.42
2018-05-06T00:41:53.101Z,16.42
2018-05-06T00:42:33.623Z,16.45
2018-05-06T00:43:14.134Z,16.43
2018-05-06T00:43:54.641Z,16.45
2018-05-06T00:44:35.173Z,16.43
2018-05-06T00:45:15.704Z,16.43
2018-05-06T00:45:56.227Z,16.45
2018-05-06T00:46:36.752Z,16.45
2018-05-06T00:47:17.277Z,16.42
2018-05-06T00:47:57.800Z,16.48
2018-05-06T00:48:38.321Z,16.45
2018-05-06T00:49:18.871Z,16.42
2018-05-06T00:49:59.396Z,16.39
2018-05-06T00:50:39.945Z,16.43
2018-05-06T00:51:20.494Z,16.43
2018-05-06T00:52:01.009Z,16.41
2018-05-06T00:52:41.535Z,16.38
2018-05-06T00:53:22.061Z,16.34
2018-05-06T00:54:02.932Z,16.43
2018-05-06T00:54:43.489Z,16.3
2018-05-06T00:55:24.019Z,16.42
2018-05-06T00:56:04.550Z,16.31
2018-05-06T00:56:45.079Z,16.31
2018-05-06T00:57:25.606Z,16.28
2018-05-06T00:58:06.133Z,16.25
2018-05-06T00:58:46.660Z,16.35
2018-05-06T00:59:27.175Z,16.42
2018-05-06T01:00:07.690Z,16.31
2018-05-06T01:00:48.213Z,16.28
2018-05-06T01:01:28.745Z,16.27
2018-05-06T01:02:09.268Z,16.28
2018-05-06T01:02:49.777Z,16.28
2018-05-06T01:03:30.303Z,16.28
2018-05-06T01:04:10.816Z,16.3
2018-05-06T01:04:51.319Z,16.3
2018-05-06T01:05:31.825Z,16.25
2018-05-06T01:06:12.342Z,16.27
2018-05-06T01:06:52.860Z,16.3
2018-05-06T01:07:33.384Z,16.3
2018-05-06T01:08:13.910Z,16.27
2018-05-06T01:08:54.435Z,16.2
2018-05-06T01:09:34.963Z,16.25
2018-05-06T01:10:15.488Z,16.23
2018-05-06T01:10:56.008Z,16.28
2018-05-06T01:11:36.529Z,16.3
2018-05-06T01:12:17.054Z,16.25
2018-05-06T01:12:57.566Z,16.3
2018-05-06T01:13:38.090Z,16.24
2018-05-06T01:14:18.615Z,16.21
2018-05-06T01:14:59.150Z,16.27
2018-05-06T01:15:39.680Z,16.25
2018-05-06T01:16:20.200Z,16.17
2018-05-06T01:17:00.732Z,16.14
2018-05-06T01:17:41.257Z,16.2
2018-05-06T01:18:21.777Z,16.15
2018-05-06T01:19:02.302Z,16.17
2018-05-06T01:19:42.829Z,16.17
2018-05-06T01:20:23.356Z,16.21
2018-05-06T01:21:03.888Z,16.14
2018-05-06T01:21:44.382Z,16.08
2018-05-06T01:22:24.907Z,16.21
2018-05-06T01:23:05.426Z,16.14
2018-05-06T01:23:45.956Z,16.11
2018-05-06T01:24:26.478Z,16.07
2018-05-06T01:25:07.006Z,16.2
2018-05-06T01:25:47.526Z,16.09
2018-05-06T01:26:28.049Z,16.07
2018-05-06T01:27:08.563Z,16.15
2018-05-06T01:27:49.091Z,16.09
2018-05-06T01:28:29.620Z,16.17
2018-05-06T01:29:10.142Z,16.15
2018-05-06T01:29:50.667Z,16.08
2018-05-06T01:30:31.197Z,16.09
2018-05-06T01:31:11.708Z,16.09
2018-05-06T01:31:52.234Z,16
2018-05-06T01:32:32.754Z,16.02
2018-05-06T01:33:13.275Z,15.96
2018-05-06T01:33:53.781Z,15.93
2018-05-06T01:34:34.299Z,16
2018-05-06T01:35:14.813Z,16.08
2018-05-06T01:35:55.326Z,15.89
2018-05-06T01:36:35.800Z,15.96
2018-05-06T01:37:16.295Z,15.9
2018-05-06T01:37:56.804Z,16.04
2018-05-06T01:38:37.335Z,15.93
2018-05-06T01:39:17.885Z,15.92
2018-05-06T01:39:58.361Z,15.93
2018-05-06T01:40:38.879Z,15.89
2018-05-06T01:41:19.441Z,15.89
2018-05-06T01:41:59.961Z,15.89
2018-05-06T01:42:40.494Z,15.84
2018-05-06T01:43:21.021Z,15.86
2018-05-06T01:44:01.543Z,15.83
2018-05-06T01:44:42.066Z,15.75
2018-05-06T01:45:22.599Z,15.75
2018-05-06T01:46:03.108Z,15.78
2018-05-06T01:46:43.640Z,15.82
2018-05-06T01:47:24.155Z,15.74
2018-05-06T01:48:04.685Z,15.74
2018-05-06T01:48:45.200Z,15.8
2018-05-06T01:49:25.726Z,15.8
2018-05-06T01:50:06.263Z,15.72
2018-05-06T01:50:46.789Z,15.76
2018-05-06T01:51:27.316Z,15.74
2018-05-06T01:52:07.834Z,15.82
2018-05-06T01:52:48.360Z,15.75
2018-05-06T01:53:29.160Z,15.75
2018-05-06T01:54:09.689Z,15.74
2018-05-06T01:54:50.207Z,15.71
2018-05-06T01:55:30.750Z,15.71
2018-05-06T01:56:11.260Z,15.67
2018-05-06T01:56:51.782Z,15.64
2018-05-06T01:57:32.283Z,15.82
2018-05-06T01:58:12.808Z,15.71
2018-05-06T01:58:53.336Z,15.67
2018-05-06T01:59:33.866Z,15.68
2018-05-06T02:00:14.388Z,15.69
2018-05-06T02:00:54.984Z,15.65
2018-05-06T02:01:35.442Z,15.74
2018-05-06T02:02:15.962Z,15.72
2018-05-06T02:02:56.478Z,15.69
2018-05-06T02:03:37.007Z,15.71
2018-05-06T02:04:17.524Z,15.72
2018-05-06T02:04:58.052Z,15.6
2018-05-06T02:05:38.641Z,15.69
2018-05-06T02:06:19.102Z,15.65
2018-05-06T02:06:59.629Z,15.62
2018-05-06T02:07:40.150Z,15.56
2018-05-06T02:08:20.682Z,15.62
2018-05-06T02:09:01.206Z,15.56
2018-05-06T02:09:41.721Z,15.57
2018-05-06T02:10:22.244Z,15.53
2018-05-06T02:11:02.773Z,15.57
2018-05-06T02:11:43.300Z,15.65
2018-05-06T02:12:23.814Z,15.6
2018-05-06T02:13:04.336Z,15.56
2018-05-06T02:13:44.859Z,15.57
2018-05-06T02:14:25.388Z,15.44
2018-05-06T02:15:05.912Z,15.59
2018-05-06T02:15:46.450Z,15.53
2018-05-06T02:16:26.975Z,15.5
2018-05-06T02:17:07.500Z,15.49
2018-05-06T02:17:48.031Z,15.53
2018-05-06T02:18:28.544Z,15.5
2018-05-06T02:19:09.069Z,15.44
2018-05-06T02:19:49.597Z,15.51
2018-05-06T02:20:30.124Z,15.41
2018-05-06T02:21:10.643Z,15.46
2018-05-06T02:21:51.165Z,15.5
2018-05-06T02:22:31.698Z,15.51
2018-05-06T02:23:12.220Z,15.41
2018-05-06T02:23:52.738Z,15.49
2018-05-06T02:24:33.270Z,15.43
2018-05-06T02:25:13.787Z,15.5
2018-05-06T02:25:54.308Z,15.44
2018-05-06T02:26:34.838Z,15.49
2018-05-06T02:27:15.360Z,15.44
2018-05-06T02:27:55.881Z,15.39
2018-05-06T02:28:36.407Z,15.44
2018-05-06T02:29:16.935Z,15.34
2018-05-06T02:29:57.461Z,15.47
2018-05-06T02:30:37.994Z,15.39
2018-05-06T02:31:18.514Z,15.43
2018-05-06T02:31:59.045Z,15.34
2018-05-06T02:32:39.557Z,15.35
2018-05-06T02:33:20.086Z,15.32
2018-05-06T02:34:00.609Z,15.35
2018-05-06T02:34:41.130Z,15.31
2018-05-06T02:35:21.645Z,15.36
2018-05-06T02:36:02.147Z,15.36
2018-05-06T02:36:42.674Z,15.35
2018-05-06T02:37:23.205Z,15.31
2018-05-06T02:38:03.727Z,15.32
2018-05-06T02:38:44.233Z,15.29
2018-05-06T02:39:24.759Z,15.34
2018-05-06T02:40:05.280Z,15.32
2018-05-06T02:40:45.799Z,15.35
2018-05-06T02:41:26.330Z,15.31
2018-05-06T02:42:06.855Z,15.29
2018-05-06T02:42:47.378Z,15.32
2018-05-06T02:43:27.901Z,15.23
2018-05-06T02:44:08.427Z,15.27
2018-05-06T02:44:48.945Z,15.2
2018-05-06T02:45:29.461Z,15.23
2018-05-06T02:46:09.986Z,15.19
2018-05-06T02:46:50.508Z,15.19
2018-05-06T02:47:31.023Z,15.21
2018-05-06T02:48:11.552Z,15.19
2018-05-06T02:48:52.070Z,15.16
2018-05-06T02:49:32.585Z,15.17
2018-05-06T02:50:13.112Z,15.14
2018-05-06T02:50:53.640Z,15.16
2018-05-06T02:51:34.167Z,15.14
2018-05-06T02:52:14.697Z,15.19
2018-05-06T02:52:55.217Z,15.17
2018-05-06T02:53:35.738Z,15.19
2018-05-06T02:54:16.261Z,15.14
2018-05-06T02:54:56.772Z,15.14
2018-05-06T02:55:37.289Z,15.14
2018-05-06T02:56:17.820Z,15.03
2018-05-06T02:56:58.327Z,15.1
2018-05-06T02:57:38.850Z,14.98
2018-05-06T02:58:19.357Z,15.03
2018-05-06T02:58:59.865Z,14.99
2018-05-06T02:59:40.397Z,15.1
2018-05-06T03:00:20.923Z,15.02
2018-05-06T03:01:01.445Z,15.07
2018-05-06T03:01:41.970Z,15.01
2018-05-06T03:02:22.500Z,15.06
2018-05-06T03:03:03.024Z,15.02
2018-05-06T03:03:43.541Z,15.01
2018-05-06T03:04:24.056Z,14.98
2018-05-06T03:05:04.577Z,14.91
2018-05-06T03:05:45.108Z,14.98
2018-05-06T03:06:25.634Z,14.89
2018-05-06T03:07:06.159Z,14.84
2018-05-06T03:07:46.684Z,14.98
2018-05-06T03:08:27.208Z,14.92
2018-05-06T03:09:07.724Z,14.95
2018-05-06T03:09:48.249Z,14.91
2018-05-06T03:10:28.779Z,14.86
2018-05-06T03:11:09.299Z,14.78
2018-05-06T03:11:49.822Z,14.94
2018-05-06T03:12:30.341Z,14.89
2018-05-06T03:13:10.865Z,14.94
2018-05-06T03:13:51.392Z,14.89
2018-05-06T03:14:31.913Z,14.91
2018-05-06T03:15:12.437Z,14.88
2018-05-06T03:15:53.020Z,14.77
2018-05-06T03:16:33.489Z,14.89
2018-05-06T03:17:14.007Z,14.83
2018-05-06T03:17:54.534Z,14.86
2018-05-06T03:18:35.057Z,14.88
2018-05-06T03:19:15.575Z,14.81
2018-05-06T03:19:56.104Z,14.75
2018-05-06T03:20:36.638Z,14.86
2018-05-06T03:21:17.163Z,14.75
2018-05-06T03:21:57.690Z,14.83
2018-05-06T03:22:38.218Z,14.78
2018-05-06T03:23:18.743Z,14.83
2018-05-06T03:23:59.263Z,14.73
2018-05-06T03:24:39.784Z,14.81
2018-05-06T03:25:20.312Z,14.75
2018-05-06T03:26:00.829Z,14.77
2018-05-06T03:26:41.354Z,14.7
2018-05-06T03:27:21.881Z,14.68
2018-05-06T03:28:02.402Z,14.69
2018-05-06T03:28:42.928Z,14.64
2018-05-06T03:29:23.465Z,14.7
2018-05-06T03:30:03.972Z,14.69
2018-05-06T03:30:44.494Z,14.65
2018-05-06T03:31:25.017Z,14.62
2018-05-06T03:32:05.540Z,14.65
2018-05-06T03:32:46.063Z,14.62
2018-05-06T03:33:26.593Z,14.57
2018-05-06T03:34:07.121Z,14.6
2018-05-06T03:34:47.652Z,14.62
2018-05-06T03:35:28.154Z,14.6
2018-05-06T03:36:08.671Z,14.62
2018-05-06T03:36:49.188Z,14.62
2018-05-06T03:37:29.691Z,14.52
2018-05-06T03:38:10.228Z,14.57
2018-05-06T03:38:50.814Z,14.55
2018-05-06T03:39:31.269Z,14.57
2018-05-06T03:40:11.801Z,14.57
2018-05-06T03:40:52.365Z,14.57
2018-05-06T03:41:32.897Z,14.51
2018-05-06T03:42:13.412Z,14.46
2018-05-06T03:42:53.932Z,14.51
2018-05-06T03:43:34.457Z,14.46
2018-05-06T03:44:14.985Z,14.47
2018-05-06T03:44:55.497Z,14.46
2018-05-06T03:45:36.025Z,14.51
2018-05-06T03:46:16.588Z,14.46
2018-05-06T03:46:57.082Z,14.47
2018-05-06T03:47:37.594Z,14.43
2018-05-06T03:48:18.120Z,14.46
2018-05-06T03:48:58.650Z,14.45
2018-05-06T03:49:39.180Z,14.46
2018-05-06T03:50:19.697Z,14.42
2018-05-06T03:51:00.221Z,14.46
2018-05-06T03:51:40.757Z,14.47
2018-05-06T03:52:21.276Z,14.45
2018-05-06T03:53:01.795Z,14.43
2018-05-06T03:53:42.326Z,14.46
2018-05-06T03:54:22.848Z,14.5
2018-05-06T03:55:03.371Z,14.42
2018-05-06T03:55:43.880Z,14.42
2018-05-06T03:56:24.414Z,14.45
2018-05-06T03:57:04.937Z,14.42
2018-05-06T03:57:45.462Z,14.45
2018-05-06T03:58:25.980Z,14.5
2018-05-06T03:59:06.505Z,14.4
2018-05-06T03:59:47.032Z,14.36
2018-05-06T04:00:27.617Z,14.4
2018-05-06T04:01:08.090Z,14.45
2018-05-06T04:01:48.617Z,14.4
2018-05-06T04:02:29.141Z,14.37
2018-05-06T04:03:09.668Z,14.42
2018-05-06T04:03:50.193Z,14.42
2018-05-06T04:04:30.679Z,14.4
2018-05-06T04:05:11.185Z,14.46
2018-05-06T04:05:51.773Z,14.42
2018-05-06T04:06:32.236Z,14.4
2018-05-06T04:07:12.760Z,14.42
2018-05-06T04:07:53.322Z,14.45
2018-05-06T04:08:33.856Z,14.42
2018-05-06T04:09:14.377Z,14.37
2018-05-06T04:09:54.916Z,14.42
2018-05-06T04:10:35.436Z,14.45
2018-05-06T04:11:15.965Z,14.42
2018-05-06T04:11:56.538Z,14.47
2018-05-06T04:12:36.998Z,14.51
2018-05-06T04:13:17.523Z,14.43
2018-05-06T04:13:58.040Z,14.46
2018-05-06T04:14:38.572Z,14.51
2018-05-06T04:15:19.097Z,14.51
2018-05-06T04:15:59.618Z,14.55
2018-05-06T04:16:40.143Z,14.6
2018-05-06T04:17:20.666Z,14.57
2018-05-06T04:18:01.195Z,14.5
2018-05-06T04:18:41.703Z,14.55
2018-05-06T04:19:22.230Z,14.55
2018-05-06T04:20:02.760Z,14.57
2018-05-06T04:20:43.280Z,14.6
2018-05-06T04:21:23.804Z,14.69
2018-05-06T04:22:04.330Z,14.6
2018-05-06T04:22:44.853Z,14.62
2018-05-06T04:23:25.375Z,14.62
2018-05-06T04:24:05.902Z,14.65
2018-05-06T04:24:46.423Z,14.7
2018-05-06T04:25:26.947Z,14.7
2018-05-06T04:26:07.468Z,14.75
2018-05-06T04:26:48.058Z,14.77
2018-05-06T04:27:28.517Z,14.75
2018-05-06T04:28:09.020Z,14.72
2018-05-06T04:28:49.541Z,14.72
2018-05-06T04:29:30.072Z,14.83
2018-05-06T04:30:10.601Z,14.75
2018-05-06T04:30:51.136Z,14.78
2018-05-06T04:31:31.649Z,14.86
2018-05-06T04:32:12.181Z,14.89
2018-05-06T04:32:52.709Z,14.81
2018-05-06T04:33:33.232Z,14.91
2018-05-06T04:34:13.755Z,14.91
2018-05-06T04:34:54.300Z,14.91
2018-05-06T04:35:34.798Z,14.99
2018-05-06T04:36:15.311Z,14.99
2018-05-06T04:36:55.845Z,15.03
2018-05-06T04:37:36.369Z,15.02
2018-05-06T04:38:16.877Z,15.01
2018-05-06T04:38:57.424Z,15.06
2018-05-06T04:39:37.953Z,15.07
2018-05-06T04:40:18.486Z,15.16
2018-05-06T04:40:59.008Z,15.19
2018-05-06T04:41:39.525Z,15.13
2018-05-06T04:42:20.030Z,15.2
2018-05-06T04:43:00.562Z,15.23
2018-05-06T04:43:41.081Z,15.31
2018-05-06T04:44:21.678Z,15.34
2018-05-06T04:45:02.127Z,15.36
2018-05-06T04:45:42.655Z,15.29
2018-05-06T04:46:23.173Z,15.34
2018-05-06T04:47:03.695Z,15.39
2018-05-06T04:47:44.230Z,15.47
2018-05-06T04:48:24.735Z,15.46
2018-05-06T04:49:05.259Z,15.51
2018-05-06T04:49:45.774Z,15.54
2018-05-06T04:50:26.289Z,15.62
2018-05-06T04:51:06.820Z,15.6
2018-05-06T04:51:47.343Z,15.59
2018-05-06T04:52:27.867Z,15.67
2018-05-06T04:53:08.385Z,15.65
2018-05-06T04:53:49.409Z,15.65
2018-05-06T04:54:29.949Z,15.71
2018-05-06T04:55:10.472Z,15.68
2018-05-06T04:55:50.997Z,15.67
2018-05-06T04:56:31.526Z,15.74
2018-05-06T04:57:12.051Z,15.82
2018-05-06T04:57:52.574Z,15.83
2018-05-06T04:58:33.096Z,15.8
2018-05-06T04:59:13.615Z,15.86
2018-05-06T04:59:54.141Z,15.87
2018-05-06T05:00:34.790Z,15.92
2018-05-06T05:01:15.254Z,16
2018-05-06T05:01:55.856Z,15.96
2018-05-06T05:02:37.328Z,15.89
2018-05-06T05:03:17.427Z,16.08
2018-05-06T05:03:58.276Z,16.05
2018-05-06T05:04:38.805Z,16.05
2018-05-06T05:05:19.329Z,16.14
2018-05-06T05:05:59.857Z,16.05
2018-05-06T05:06:40.384Z,16.11
2018-05-06T05:07:20.915Z,16.23
2018-05-06T05:08:01.437Z,16.12
2018-05-06T05:08:41.965Z,16.25
2018-05-06T05:09:22.495Z,16.23
2018-05-06T05:10:03.119Z,16.28
2018-05-06T05:10:43.639Z,16.25
2018-05-06T05:11:24.164Z,16.38
2018-05-06T05:12:04.694Z,16.41
2018-05-06T05:12:45.226Z,16.42
2018-05-06T05:13:25.755Z,16.48
2018-05-06T05:14:06.280Z,16.56
2018-05-06T05:14:46.801Z,16.6
2018-05-06T05:15:27.327Z,16.6
2018-05-06T05:16:07.889Z,16.6
2018-05-06T05:16:48.363Z,16.58
2018-05-06T05:17:28.889Z,16.68
2018-05-06T05:18:09.399Z,16.68
2018-05-06T05:18:49.923Z,16.79
2018-05-06T05:19:30.451Z,16.81
2018-05-06T05:20:10.981Z,16.85
2018-05-06T05:20:51.519Z,16.85
2018-05-06T05:21:32.040Z,16.79
2018-05-06T05:22:12.551Z,16.96
2018-05-06T05:22:53.083Z,17.03
2018-05-06T05:23:33.614Z,17.01
2018-05-06T05:24:14.136Z,17.06
2018-05-06T05:24:55.075Z,17.07
2018-05-06T05:25:35.599Z,17.01
2018-05-06T05:26:16.129Z,17.06
2018-05-06T05:26:56.657Z,17.15
2018-05-06T05:27:37.186Z,17.12
2018-05-06T05:28:17.713Z,17.19
2018-05-06T05:28:58.247Z,17.23
2018-05-06T05:29:38.849Z,17.23
2018-05-06T05:30:19.606Z,17.31
2018-05-06T05:31:00.126Z,17.38
2018-05-06T05:31:40.644Z,17.34
2018-05-06T05:32:21.181Z,17.4
2018-05-06T05:33:01.745Z,17.52
2018-05-06T05:36:16.030Z,17.72
2018-05-06T05:36:56.562Z,17.72
2018-05-06T05:37:37.082Z,17.78
2018-05-06T05:38:17.602Z,17.78
2018-05-06T05:38:58.165Z,17.79
2018-05-06T05:39:38.646Z,17.87
2018-05-06T05:40:19.171Z,17.9
2018-05-06T05:40:59.695Z,17.87
2018-05-06T05:41:40.223Z,17.95
2018-05-06T05:42:20.729Z,17.96
2018-05-06T05:43:01.279Z,18.02
2018-05-06T05:43:41.803Z,17.97
2018-05-06T05:44:22.331Z,18.1
2018-05-06T05:45:02.865Z,18.1
2018-05-06T05:45:43.378Z,18.14
2018-05-06T05:46:23.901Z,18.2
2018-05-06T05:47:04.427Z,18.21
2018-05-06T05:47:45.037Z,18.36
2018-05-06T05:48:25.474Z,18.35
2018-05-06T05:49:06.002Z,18.36
2018-05-06T05:49:46.525Z,18.47
2018-05-06T05:50:27.057Z,18.44
2018-05-06T05:51:07.574Z,18.44
2018-05-06T05:51:48.106Z,18.57
2018-05-06T05:52:28.632Z,18.62
2018-05-06T05:53:09.155Z,18.76
2018-05-06T05:53:49.918Z,18.85
2018-05-06T05:54:30.437Z,18.87
2018-05-06T05:55:10.963Z,18.92
2018-05-06T05:55:51.483Z,18.99
2018-05-06T05:56:32.001Z,19.13
2018-05-06T05:57:12.517Z,19.07
2018-05-06T05:57:53.041Z,19.16
2018-05-06T05:58:33.546Z,19.25
2018-05-06T05:59:14.061Z,19.39
2018-05-06T05:59:54.591Z,19.46
2018-05-06T06:00:35.113Z,19.47
2018-05-06T06:01:16.324Z,19.51
2018-05-06T06:01:57.374Z,19.73
2018-05-06T06:02:37.892Z,19.74
2018-05-06T06:03:18.413Z,19.76
2018-05-06T06:03:58.923Z,19.92
2018-05-06T06:04:39.450Z,20.05
2018-05-06T06:05:19.963Z,20.01
2018-05-06T06:06:00.492Z,20.26
2018-05-06T06:06:41.041Z,20.38
2018-05-06T06:07:21.545Z,20.55
2018-05-06T06:08:02.064Z,20.51
2018-05-06T06:08:42.573Z,20.66
2018-05-06T06:09:23.117Z,20.79
2018-05-06T06:10:03.644Z,20.94
2018-05-06T06:10:44.215Z,21.07
2018-05-06T06:11:24.688Z,21.1
2018-05-06T06:12:05.213Z,21.21
2018-05-06T06:12:45.721Z,21.37
2018-05-06T06:13:26.248Z,21.44
2018-05-06T06:14:06.777Z,21.54
2018-05-06T06:14:47.296Z,21.67
2018-05-06T06:15:27.829Z,21.77
2018-05-06T06:16:08.344Z,21.9
2018-05-06T06:16:48.874Z,21.99
2018-05-06T06:17:29.393Z,22.03
2018-05-06T06:18:09.908Z,22.12
2018-05-06T06:18:50.435Z,22.28
2018-05-06T06:19:30.977Z,22.33
2018-05-06T06:20:11.495Z,22.42
2018-05-06T06:20:52.137Z,22.47
2018-05-06T06:21:32.783Z,22.58
2018-05-06T06:22:13.314Z,22.67
2018-05-06T06:22:53.824Z,22.7
2018-05-06T06:23:34.405Z,22.76
2018-05-06T06:24:14.908Z,22.9
2018-05-06T06:24:55.429Z,23
2018-05-06T06:25:35.948Z,23.17
2018-05-06T06:26:16.436Z,23.15
2018-05-06T06:26:56.948Z,23.33
2018-05-06T06:27:37.475Z,23.4
2018-05-06T06:28:18.004Z,23.55
2018-05-06T06:28:58.537Z,23.51
2018-05-06T06:29:39.648Z,23.63
2018-05-06T06:30:19.921Z,23.76
2018-05-06T06:31:00.447Z,23.78
2018-05-06T06:31:40.958Z,23.98
2018-05-06T06:32:21.492Z,23.98
2018-05-06T06:33:02.113Z,24.12
2018-05-06T06:33:42.547Z,24.24
2018-05-06T06:34:23.168Z,24.24
2018-05-06T06:35:03.703Z,24.35
2018-05-06T06:35:44.211Z,24.37
2018-05-06T06:36:24.762Z,24.58
2018-05-06T06:37:05.294Z,24.64
2018-05-06T06:37:46.044Z,24.68
2018-05-06T06:38:26.628Z,24.87
2018-05-06T06:39:07.072Z,24.99
2018-05-06T06:39:47.594Z,25.02
2018-05-06T06:40:28.125Z,25.14
2018-05-06T06:41:08.645Z,25.24
2018-05-06T06:41:49.172Z,25.3
2018-05-06T06:42:29.697Z,25.38
2018-05-06T06:43:10.219Z,25.51
2018-05-06T06:43:50.740Z,25.67
2018-05-06T06:44:31.264Z,25.79
2018-05-06T06:45:11.793Z,25.87
2018-05-06T06:45:52.308Z,25.91
2018-05-06T06:46:32.994Z,26.12
2018-05-06T06:47:13.518Z,26.23
2018-05-06T06:47:54.126Z,26.28
2018-05-06T06:48:34.634Z,26.44
2018-05-06T06:49:15.940Z,26.62
2018-05-06T06:49:56.642Z,26.75
2018-05-06T06:50:37.208Z,26.95
2018-05-06T06:51:17.656Z,27.19
2018-05-06T06:51:58.159Z,27.28
2018-05-06T06:52:38.708Z,27.51
2018-05-06T06:53:19.241Z,27.62
2018-05-06T06:53:59.773Z,27.9
2018-05-06T06:54:40.292Z,27.96
2018-05-06T06:55:20.824Z,28.15
2018-05-06T06:56:01.396Z,28.41
2018-05-06T06:56:41.916Z,28.55
2018-05-06T06:57:22.575Z,28.85
2018-05-06T06:58:03.026Z,29.06
2018-05-06T06:58:43.553Z,29.37
2018-05-06T06:59:24.083Z,29.6
2018-05-06T07:00:04.609Z,29.9
2018-05-06T07:00:45.152Z,30.2
2018-05-06T07:01:25.831Z,30.49
2018-05-06T07:02:06.357Z,30.72
2018-05-06T07:02:46.885Z,30.83
2018-05-06T07:03:27.844Z,31.04
2018-05-06T07:04:08.036Z,31.17
2018-05-06T07:04:48.901Z,31.29
2018-05-06T07:05:29.429Z,31.62
2018-05-06T07:06:09.962Z,31.95
2018-05-06T07:06:50.486Z,32.29
2018-05-06T07:07:31.042Z,32.7
2018-05-06T07:08:12.003Z,33.11
2018-05-06T07:08:52.559Z,33.59
2018-05-06T07:09:33.093Z,33.98
2018-05-06T07:10:13.593Z,34.65
2018-05-06T07:10:54.102Z,35.22
2018-05-06T07:11:34.831Z,35.78
2018-05-06T07:12:15.574Z,36.29
2018-05-06T07:12:56.281Z,36.66
2018-05-06T07:13:36.782Z,37.17
2018-05-06T07:14:17.306Z,37.47
2018-05-06T07:14:57.898Z,37.85
2018-05-06T07:15:38.428Z,38.09
2018-05-06T07:16:18.952Z,38.42
2018-05-06T07:16:59.480Z,38.74
2018-05-06T07:17:40.004Z,39.03
2018-05-06T07:18:20.668Z,39.23
2018-05-06T07:19:01.103Z,39.45
2018-05-06T07:19:41.820Z,39.69
2018-05-06T07:20:22.381Z,39.97
2018-05-06T07:21:02.909Z,40.19
2018-05-06T07:21:43.493Z,40.25
2018-05-06T07:22:24.019Z,40.29
2018-05-06T07:23:04.612Z,40.41
2018-05-06T07:23:45.138Z,40.35
2018-05-06T07:24:25.664Z,40.18
2018-05-06T07:25:06.195Z,40.06
2018-05-06T07:25:46.729Z,40.25
2018-05-06T07:26:28.239Z,40.5
2018-05-06T07:27:09.203Z,40.62
2018-05-06T07:27:49.733Z,40.67
2018-05-06T07:28:30.263Z,40.92
2018-05-06T07:29:10.799Z,41.2
2018-05-06T07:29:51.388Z,41.48
2018-05-06T07:30:31.861Z,41.96
2018-05-06T07:31:12.714Z,42.4
2018-05-06T07:31:53.334Z,42.86
2018-05-06T07:32:34.122Z,43.37
2018-05-06T07:33:14.905Z,43.84
2018-05-06T07:33:55.541Z,44.32
2018-05-06T07:34:36.065Z,44.75
2018-05-06T07:35:16.683Z,45.23
2018-05-06T07:35:57.401Z,45.58
2018-05-06T07:36:37.881Z,45.91
2018-05-06T07:37:18.555Z,46.33
2018-05-06T07:37:59.088Z,46.72
2018-05-06T07:38:39.621Z,47.09
2018-05-06T07:39:20.272Z,47.38
2018-05-06T07:40:00.850Z,47.7
2018-05-06T07:40:41.395Z,47.91
2018-05-06T07:41:22.090Z,48.16
2018-05-06T07:42:02.892Z,48.36
2018-05-06T07:42:44.412Z,48.64
2018-05-06T07:43:24.959Z,48.98
2018-05-06T07:44:05.505Z,49.27
2018-05-06T07:44:46.036Z,49.55
2018-05-06T07:45:26.577Z,49.81
2018-05-06T07:46:07.090Z,50.19
2018-05-06T07:46:47.634Z,50.42
2018-05-06T07:47:28.168Z,50.77
2018-05-06T07:48:08.710Z,51.08
2018-05-06T07:48:49.485Z,51.38
2018-05-06T07:49:30.053Z,51.88
2018-05-06T07:50:10.714Z,52.15
2018-05-06T07:50:51.599Z,52.35
2018-05-06T07:51:32.221Z,52.74
2018-05-06T07:52:12.813Z,53.04
2018-05-06T07:52:53.341Z,53.37
2018-05-06T07:53:34.134Z,53.63
2018-05-06T07:54:14.685Z,54.07
2018-05-06T07:54:55.454Z,54.34
2018-05-06T07:55:36.227Z,54.61
2018-05-06T07:56:16.762Z,54.92
2018-05-06T07:56:57.299Z,55.21
2018-05-06T07:57:37.835Z,55.33
2018-05-06T07:58:18.372Z,55.53
2018-05-06T07:58:58.919Z,55.65
2018-05-06T07:59:39.455Z,55.82
2018-05-06T08:00:20.005Z,56.14
2018-05-06T08:01:00.542Z,56.35
2018-05-06T08:01:41.081Z,56.58
2018-05-06T08:02:21.626Z,56.83
2018-05-06T08:03:02.170Z,57
2018-05-06T08:03:42.708Z,57.2
2018-05-06T08:04:23.248Z,57.27
2018-05-06T08:05:03.785Z,57.54
2018-05-06T08:05:44.329Z,57.71
2018-05-06T08:06:24.864Z,57.74
2018-05-06T08:07:05.397Z,57.99
2018-05-06T08:07:45.947Z,58.18
2018-05-06T08:08:26.476Z,58.37
2018-05-06T08:09:07.021Z,58.49
2018-05-06T08:09:47.569Z,58.59
2018-05-06T08:10:28.101Z,58.7
2018-05-06T08:11:08.653Z,58.66
2018-05-06T08:11:49.189Z,58.82
2018-05-06T08:12:29.732Z,59.01
2018-05-06T08:13:10.272Z,59.13
2018-05-06T08:13:50.807Z,59.17
2018-05-06T08:14:31.346Z,59.34
2018-05-06T08:15:11.888Z,59.36
2018-05-06T08:15:52.436Z,59.34
2018-05-06T08:16:33.037Z,59.37
2018-05-06T08:17:13.519Z,59.34
2018-05-06T08:17:54.058Z,59.4
2018-05-06T08:18:34.591Z,59.55
2018-05-06T08:19:15.125Z,59.67
2018-05-06T08:19:55.664Z,59.71
2018-05-06T08:20:36.220Z,59.87
2018-05-06T08:21:16.765Z,59.94
2018-05-06T08:21:57.347Z,60.02
2018-05-06T08:22:37.846Z,60.12
2018-05-06T08:23:18.386Z,60.21
2018-05-06T08:23:58.947Z,60.43
2018-05-06T08:24:39.480Z,60.61
2018-05-06T08:25:20.029Z,60.96
2018-05-06T08:26:00.571Z,61.22
2018-05-06T08:26:41.107Z,61.38
2018-05-06T08:27:21.649Z,61.6
2018-05-06T08:28:02.202Z,61.81
2018-05-06T08:28:42.740Z,61.89
2018-05-06T08:29:23.278Z,62.01
2018-05-06T08:30:03.817Z,62.25
2018-05-06T08:30:44.355Z,62.36
2018-05-06T08:31:24.902Z,62.44
2018-05-06T08:32:05.447Z,62.43
2018-05-06T08:32:45.995Z,62.46
2018-05-06T08:33:26.525Z,62.4
2018-05-06T08:34:07.064Z,62.28
2018-05-06T08:34:47.606Z,62.55
2018-05-06T08:35:28.147Z,62.67
2018-05-06T08:36:08.698Z,62.77
2018-05-06T08:36:49.235Z,63.02
2018-05-06T08:37:29.792Z,63.09
2018-05-06T08:38:10.328Z,63.15
2018-05-06T08:38:50.866Z,63.18
2018-05-06T08:39:31.411Z,63.27
2018-05-06T08:40:11.957Z,63.25
2018-05-06T08:40:52.502Z,63.41
2018-05-06T08:41:33.052Z,63.57
2018-05-06T08:42:13.594Z,63.78
2018-05-06T08:42:54.138Z,63.75
2018-05-06T08:43:34.680Z,63.73
2018-05-06T08:44:15.240Z,63.72
2018-05-06T08:44:55.750Z,63.9
2018-05-06T08:45:36.298Z,64.01
2018-05-06T08:46:16.877Z,63.97